Historyczne dane pomiarowe

Dodano dane terminowe – wersja testowa.

Dane z okresu 1951-2019

Wersja bazy: 1.34 [2019-03-16, lista zmian], aktualizacja planowana na 2019-04-15

Dane meteo z obszaru Polski uzyskane na podstawie danych udostępnionych przez Instytut Meteorologii i Gospodarki Wodnej – Państwowy Instytut Badawczy.

 

Wybierz Datę:    

       

TemperaturaWilgotnośćWiatrCiśnienieOpadyŚniegCzas trwania zjawisk
 Stacja t tx tn tng RH VA  wxwx mslp ppp RRR   cm mm wxwxwxwxwxwxwx
1956-11-09 -3.9 0.0 -6.5- 80.8- 2.7 2.0---- 0.0------------
1956-11-08 -2.6 0.3 -5.3- 81.8- 3.0 3.0---- 0.0------------
1956-11-07 -1.1 2.6 -3.3- 80.8- 2.3 5.3---- 0.1------------
1956-11-06 1.4 4.5 0.3- 71.8- 5.0 7.3---- 0.0------------
1956-11-05 3.0 6.6 -1.2- 90.0- 8.0 4.3---- 0.3------------
1956-11-04 -0.1 4.9 -3.4- 78.0- 0.3 2.3---- 0.0------------
1956-11-03 0.0 2.0 -4.0- 87.8- 7.0 2.0---- 0.0------------
1956-11-02 -0.9 4.7 -2.4- 93.5- 4.0 1.3---- 0.0------------
1956-11-01 -0.6 2.5 -7.1- 78.5- 6.7 8.0---- 0.8------------
1956-10-31 -5.9 -1.3 -8.3- 78.8- 0.0 3.0---- 0.0------------
1956-10-30 -0.5 4.7 -1.8- 88.5- 8.0 7.7---- 0.0------------
1956-10-29 5.5 10.7 3.6- 84.0- 4.3 5.0---- 0.0------------
1956-10-28 9.9 10.8 8.7- 96.8- 8.0 6.3---- 7.3------------
1956-10-27 9.5 12.0 7.5- 92.3- 8.0 6.3---- 1.2------------
1956-10-26 8.3 11.0 6.0- 96.5- 8.0 3.0---- 1.0------------
1956-10-25 10.8 16.7 6.8- 85.0- 2.0 4.3---- 0.0------------
1956-10-24 10.4 14.2 5.2- 87.5- 5.3 3.7---- 0.0------------
1956-10-23 9.3 11.7 7.7- 82.0- 6.3 3.7---- 0.0------------
1956-10-22 10.6 12.4 7.5- 91.8- 8.0 5.3---- 0.0------------
1956-10-21 11.9 17.1 8.1- 90.8- 1.3 2.0---- 0.0------------
1956-10-20 9.6 13.0 4.7- 89.0- 6.3 3.0---- 0.0------------
1956-10-19 9.9 13.6 7.9- 97.0- 7.3 2.7---- 1.0------------
1956-10-18 9.8 12.9 3.9- 90.0- 7.3 2.0---- 0.9------------
1956-10-17 5.7 13.1 0.9- 82.0- 0.0 3.0---- 0.0------------
1956-10-16 5.4 11.1 -1.4- 87.5- 4.7 2.0---- 0.0------------
1956-10-15 4.4 11.8 1.3- 87.0- 1.0 4.0---- 0.0------------
1956-10-14 7.3 11.5 5.1- 67.5- 0.3 7.3---- 0.0------------
1956-10-13 10.8 12.5 8.2- 71.0- 6.7 13.3---- 5.0------------
1956-10-12 9.3 11.9 8.4- 86.0- 6.0 6.7---- 0.0------------
1956-10-11 8.7 11.9 4.6- 76.0- 5.0 7.3---- 0.0------------
1956-10-10 4.2 9.1 -1.6- 80.8- 4.0 2.7---- 0.0------------
1956-10-09 6.3 8.8 0.7- 89.8- 5.0 3.7---- 0.1------------
1956-10-08 5.1 10.3 1.3- 86.3- 5.0 4.0---- 0.0------------
1956-10-07 6.9 8.8 4.7- 82.8- 8.0 9.0---- 1.3------------
1956-10-06 6.8 9.7 4.6- 97.5- 8.0 5.3---- 43.2------------
1956-10-05 10.0 15.8 8.1- 84.3- 5.0 3.3---- 0.0------------
1956-10-04 9.0 12.9 4.4- 93.8- 5.3 2.3---- 1.4------------
1956-10-03 12.5 19.2 8.9- 84.3- 5.3 5.0---- 0.3------------
1956-10-02 16.4 26.0 8.4- 75.3- 1.0 3.7---- 0.0------------
1956-10-01 14.7 24.4 3.9- 82.5- 0.7 2.3---- 0.0------------
1956-09-30 10.0 17.5 7.4- 92.8- 4.0 2.0---- 0.0------------
1956-09-29 16.0 20.3 12.0- 83.5- 6.3 6.0---- 0.8------------
1956-09-28 13.9 18.9 11.0- 82.3- 4.3 5.0---- 0.0------------
1956-09-27 15.5 25.0 5.4- 73.8- 2.0 3.3---- 0.0------------
1956-09-26 12.0 22.8 3.1- 78.5- 0.0 3.3---- 0.0------------
1956-09-25 9.2 18.3 0.5- 80.8- 0.0 2.7---- 0.0------------
1956-09-24 7.3 15.3 2.4- 69.3- 0.0 4.3---- 0.0------------
1956-09-23 10.0 17.1 5.9- 77.8- 1.3 5.7---- 0.0------------
1956-09-22 11.4 19.1 3.8- 82.0- 1.3 3.7---- 0.0------------
1956-09-21 9.3 19.0 1.3- 83.8- 0.0 0.3---- 0.0------------
1956-09-20 8.9 18.5 2.1- 80.8- 1.7 3.0---- 0.0------------
1956-09-19 7.7 16.3 0.1- 83.8- 0.7 0.7---- 0.0------------
1956-09-18 7.3 14.5 4.5- 85.0- 1.7 3.7---- 0.0------------
1956-09-17 9.0 14.4 6.8- 79.3- 5.7 6.3---- 0.0------------
1956-09-16 10.6 14.0 5.7- 81.5- 5.3 7.0---- 0.0------------
1956-09-15 9.3 15.0 6.4- 91.5- 5.0 4.0---- 0.0------------
1956-09-14 9.4 15.4 5.1- 86.3- 3.3 3.7---- 0.0------------
1956-09-13 8.7 14.3 6.6- 88.3- 3.7 5.3---- 0.2------------
1956-09-12 11.0 15.8 8.4- 90.5- 5.0 5.3---- 9.7------------
1956-09-11 12.9 16.0 11.7- 94.8- 5.3 1.7---- 6.6------------
189.4 ms

 

Źródłem pochodzenia danych jest Instytut Meteorologii i Gospodarki Wodnej – Państwowy Instytut Badawczy. Dane Instytutu Meteorologii i Gospodarki Wodnej – Państwowego Instytutu Badawczego zostały przetworzone.

Dane źródłowe można odnaleźć na stronie https://dane.imgw.pl